Time;durP1;ratioP1;P1;durP2;ratioP2;P2;SDS_P1;SDS_P2;PMS_P1;PMS_P2;Temp;Humidity;BMP_temperature;BMP_pressure;BME280_temperature;BME280_humidity;BME280_pressure;Samples;Min_cycle;Max_cycle;Signal;HPM_P1;HPM_P2
2022/11/15 00:01:40;;;;;;;367.80;341.10;;;9.50;22.00;;;;;;5071441;28;20178;-69
2022/11/15 00:04:05;;;;;;;318.77;297.20;;;9.40;22.00;;;;;;5071454;28;20648;-69
2022/11/15 00:06:32;;;;;;;324.53;302.57;;;9.40;22.20;;;;;;5071222;28;20427;-70
2022/11/15 00:08:58;;;;;;;408.53;377.40;;;9.30;22.70;;;;;;5070414;28;20666;-69
2022/11/15 00:11:24;;;;;;;297.17;276.90;;;9.20;22.60;;;;;;5071597;28;20412;-70
2022/11/15 00:13:50;;;;;;;282.33;261.93;;;9.20;22.80;;;;;;5071420;28;20439;-70
2022/11/15 00:16:15;;;;;;;434.20;406.30;;;9.20;22.80;;;;;;5072000;28;20591;-69
2022/11/15 00:18:41;;;;;;;192.60;176.50;;;9.10;22.80;;;;;;5071430;28;20562;-70
2022/11/15 00:21:10;;;;;;;196.73;181.57;;;9.10;22.80;;;;;;5071732;28;20202;-69
2022/11/15 00:23:36;;;;;;;394.43;366.13;;;9.00;22.80;;;;;;5071140;28;20268;-69
2022/11/15 00:26:02;;;;;;;559.43;519.97;;;9.00;23.20;;;;;;5070005;28;20461;-69
2022/11/15 00:28:27;;;;;;;347.60;322.37;;;9.00;23.30;;;;;;5034856;28;1055949;-69
2022/11/15 00:30:53;;;;;;;451.47;419.60;;;9.00;23.50;;;;;;5071895;28;20173;-69
2022/11/15 00:33:19;;;;;;;313.33;289.93;;;8.90;23.60;;;;;;5071883;28;20195;-70
2022/11/15 00:35:44;;;;;;;350.10;324.47;;;8.90;23.80;;;;;;5070445;28;20428;-70
2022/11/15 00:38:10;;;;;;;313.27;290.40;;;8.90;24.00;;;;;;5070577;28;20227;-70
2022/11/15 00:40:35;;;;;;;241.23;224.43;;;8.80;24.30;;;;;;5072138;28;20201;-70
2022/11/15 00:43:01;;;;;;;344.07;319.33;;;8.80;24.50;;;;;;5071663;28;20181;-70
2022/11/15 00:45:27;;;;;;;333.03;309.33;;;8.80;24.80;;;;;;5071640;28;20688;-70
2022/11/15 00:47:52;;;;;;;301.00;278.50;;;8.70;24.80;;;;;;5070583;28;20656;-70
2022/11/15 00:50:18;;;;;;;316.30;293.10;;;8.70;24.90;;;;;;5071864;28;20184;-70
2022/11/15 00:52:45;;;;;;;313.90;291.43;;;8.70;24.90;;;;;;5070440;28;20189;-70
2022/11/15 00:55:15;;;;;;;718.70;669.23;;;8.70;24.90;;;;;;5071755;28;20416;-70
2022/11/15 00:57:41;;;;;;;415.43;384.07;;;8.70;24.90;;;;;;5051279;28;20444;-70
2022/11/15 01:00:08;;;;;;;719.23;671.20;;;8.60;25.20;;;;;;5051694;28;20498;-69
2022/11/15 01:02:34;;;;;;;474.80;440.50;;;8.50;25.50;;;;;;5050111;28;20580;-70
2022/11/15 01:05:00;;;;;;;463.30;430.47;;;8.50;25.40;;;;;;5051830;28;20421;-70
2022/11/15 01:07:25;;;;;;;430.03;399.97;;;8.50;25.70;;;;;;5069099;28;20458;-70
2022/11/15 01:09:51;;;;;;;362.73;336.83;;;8.50;25.80;;;;;;5071436;28;20188;-70
2022/11/15 01:12:16;;;;;;;271.23;253.07;;;8.40;25.70;;;;;;5072071;28;20184;-70
2022/11/15 01:14:42;;;;;;;483.80;449.07;;;8.40;25.80;;;;;;5071594;28;20209;-70
2022/11/15 01:17:08;;;;;;;498.30;465.00;;;8.30;26.10;;;;;;5074362;28;20202;-70
2022/11/15 01:19:33;;;;;;;337.27;312.60;;;8.30;26.90;;;;;;5075303;28;20640;-70
2022/11/15 01:21:59;;;;;;;393.87;365.80;;;8.30;26.40;;;;;;5075307;28;20185;-70
2022/11/15 01:24:24;;;;;;;268.23;249.40;;;8.20;26.30;;;;;;5075354;28;20176;-70
2022/11/15 01:26:50;;;;;;;499.53;462.83;;;8.20;26.30;;;;;;5074894;28;20216;-70
2022/11/15 01:29:16;;;;;;;459.43;427.43;;;8.20;26.30;;;;;;5075278;28;20195;-70
2022/11/15 01:31:41;;;;;;;602.93;560.27;;;8.20;26.30;;;;;;5073870;28;20223;-70
2022/11/15 01:34:07;;;;;;;800.50;744.80;;;8.20;26.30;;;;;;5075144;28;20177;-70
2022/11/15 01:36:32;;;;;;;581.10;540.70;;;8.20;26.30;;;;;;5074980;28;20227;-70
2022/11/15 01:38:58;;;;;;;602.93;561.83;;;8.10;26.30;;;;;;5074926;28;20209;-70
2022/11/15 01:41:30;;;;;;;529.67;493.20;;;8.20;26.30;;;;;;5075099;28;20635;-70
2022/11/15 01:44:17;;;;;;;288.30;266.20;;;8.10;26.20;;;;;;5073579;28;20445;-70
2022/11/15 01:46:47;;;;;;;300.93;279.87;;;8.10;27.00;;;;;;5073290;28;20431;-70
2022/11/15 01:49:16;;;;;;;706.73;660.07;;;8.00;27.10;;;;;;5074859;28;20496;-70
2022/11/15 01:51:42;;;;;;;742.27;691.10;;;7.90;27.10;;;;;;5073521;28;20438;-70
2022/11/15 01:54:16;;;;;;;162.17;149.60;;;7.90;27.30;;;;;;5073412;28;20914;-70
2022/11/15 01:56:47;;;;;;;492.87;460.27;;;7.80;28.20;;;;;;5074734;28;20167;-70
2022/11/15 01:59:13;;;;;;;703.40;653.50;;;7.80;28.20;;;;;;5074681;28;20459;-70
2022/11/15 02:01:39;;;;;;;689.73;640.73;;;7.70;27.70;;;;;;5074481;28;20426;-70
2022/11/15 02:04:23;;;;;;;649.77;603.57;;;7.60;28.00;;;;;;5073190;28;20419;-70
2022/11/15 02:06:49;;;;;;;530.63;493.10;;;7.40;28.00;;;;;;5074406;28;20438;-70
2022/11/15 02:09:16;;;;;;;431.70;403.97;;;7.30;28.70;;;;;;5073243;28;20422;-70
2022/11/15 02:11:45;;;;;;;491.70;457.63;;;7.20;29.20;;;;;;5074439;28;20454;-70
2022/11/15 02:14:14;;;;;;;530.10;493.10;;;7.00;29.60;;;;;;5074615;28;20632;-70
2022/11/15 02:17:12;;;;;;;650.23;604.67;;;7.00;29.70;;;;;;5074268;28;20446;-70
2022/11/15 02:20:11;;;;;;;618.30;576.07;;;7.00;29.80;;;;;;5072455;28;20499;-70
2022/11/15 02:23:08;;;;;;;323.47;300.43;;;6.90;30.10;;;;;;5074483;28;20415;-70
2022/11/15 02:25:44;;;;;;;733.23;681.77;;;6.70;31.20;;;;;;5037748;28;20429;-70
2022/11/15 02:28:34;;;;;;;593.17;552.33;;;6.60;31.90;;;;;;5072696;28;20457;-70
2022/11/15 02:31:13;;;;;;;192.20;178.70;;;6.60;33.30;;;;;;5074659;28;20400;-69
2022/11/15 02:33:45;;;;;;;324.57;303.80;;;6.60;34.30;;;;;;5074792;28;20408;-69
2022/11/15 02:36:18;;;;;;;876.93;815.53;;;6.70;33.90;;;;;;5074152;28;20401;-69
2022/11/15 02:38:59;;;;;;;514.77;478.33;;;6.80;33.80;;;;;;5072731;28;20519;-70
2022/11/15 02:41:40;;;;;;;817.77;758.57;;;7.00;33.50;;;;;;5074111;28;20470;-70
2022/11/15 02:44:39;;;;;;;428.67;399.93;;;7.00;33.00;;;;;;5073926;28;20954;-70
2022/11/15 02:47:13;;;;;;;316.30;292.27;;;7.00;33.80;;;;;;5073847;28;20440;-70
2022/11/15 02:49:43;;;;;;;682.40;634.33;;;7.10;33.40;;;;;;5073744;28;20455;-70
2022/11/15 02:52:08;;;;;;;443.43;412.53;;;7.00;33.10;;;;;;5072183;28;20428;-70
2022/11/15 02:54:35;;;;;;;698.53;647.97;;;7.10;32.30;;;;;;5073535;28;20423;-70
2022/11/15 02:57:10;;;;;;;519.20;483.67;;;7.10;32.60;;;;;;5073428;28;20201;-70
2022/11/15 03:00:01;;;;;;;636.20;592.67;;;7.10;32.40;;;;;;5072173;28;20947;-70
2022/11/15 03:03:17;;;;;;;841.10;779.93;;;7.10;32.30;;;;;;5071958;28;20410;-70
2022/11/15 03:06:14;;;;;;;650.83;605.83;;;7.00;32.50;;;;;;5031349;28;20833;-70
2022/11/15 03:09:03;;;;;;;724.17;670.27;;;7.00;32.70;;;;;;5073179;28;20433;-70
2022/11/15 03:11:32;;;;;;;791.73;735.17;;;6.90;33.80;;;;;;5073322;28;20995;-70
2022/11/15 03:14:33;;;;;;;837.70;775.47;;;6.80;33.20;;;;;;5073540;28;20942;-70
2022/11/15 03:17:23;;;;;;;766.03;709.63;;;6.70;33.70;;;;;;5050026;28;20449;-70
2022/11/15 03:19:53;;;;;;;595.10;554.07;;;6.70;34.40;;;;;;5073196;28;21018;-70
2022/11/15 03:22:22;;;;;;;515.97;483.17;;;6.70;34.40;;;;;;5073034;28;20786;-70
2022/11/15 03:24:53;;;;;;;344.97;319.00;;;6.70;34.40;;;;;;5072970;28;20451;-70
2022/11/15 03:27:25;;;;;;;254.00;237.10;;;6.80;34.50;;;;;;5071571;28;20543;-70
2022/11/15 03:29:56;;;;;;;315.43;291.43;;;6.90;34.10;;;;;;5071578;28;20421;-69
2022/11/15 03:32:27;;;;;;;211.93;195.93;;;7.00;32.90;;;;;;5071453;28;20469;-69
2022/11/15 03:35:01;;;;;;;284.77;264.53;;;7.20;31.70;;;;;;5072952;28;20590;-69
2022/11/15 03:37:38;;;;;;;318.73;295.97;;;7.30;29.90;;;;;;5071469;28;20441;-69
2022/11/15 03:40:05;;;;;;;444.13;409.63;;;7.60;29.50;;;;;;5072242;28;20477;-69
2022/11/15 03:42:39;;;;;;;613.80;570.43;;;7.60;29.10;;;;;;5072504;28;20437;-70
2022/11/15 03:45:19;;;;;;;383.77;356.60;;;7.70;28.40;;;;;;5072586;28;20400;-69
2022/11/15 03:47:44;;;;;;;622.73;580.47;;;7.70;28.00;;;;;;5072554;28;20434;-69
2022/11/15 03:50:18;;;;;;;465.37;432.07;;;7.70;28.10;;;;;;5072436;28;20829;-70
2022/11/15 03:52:46;;;;;;;346.87;320.70;;;7.70;27.80;;;;;;5071032;28;20563;-69
2022/11/15 03:55:16;;;;;;;438.50;407.17;;;7.70;27.30;;;;;;5072591;28;20794;-69
2022/11/15 03:57:42;;;;;;;703.40;655.53;;;7.70;26.90;;;;;;5072472;28;20793;-69
2022/11/15 04:00:08;;;;;;;830.20;768.53;;;7.80;27.30;;;;;;5072320;28;20972;-69
2022/11/15 04:02:33;;;;;;;451.13;417.47;;;7.70;26.80;;;;;;5072035;28;20177;-70
2022/11/15 04:04:59;;;;;;;656.33;614.30;;;7.60;26.90;;;;;;5072221;28;20935;-70
2022/11/15 04:07:24;;;;;;;869.63;809.53;;;7.40;27.20;;;;;;5072549;28;20207;-70
2022/11/15 04:10:02;;;;;;;666.90;619.73;;;7.30;27.10;;;;;;5072241;28;20189;-69
2022/11/15 04:12:32;;;;;;;675.40;628.57;;;7.20;27.70;;;;;;5072047;28;20789;-70
2022/11/15 04:15:08;;;;;;;459.17;423.90;;;7.00;27.90;;;;;;5070699;28;20794;-69
2022/11/15 04:17:36;;;;;;;543.47;506.37;;;6.80;29.10;;;;;;5070732;28;20452;-69
2022/11/15 04:25:32;;;;;;;544.13;505.97;;;6.50;29.30;;;;;;5072329;28;20387;-69
2022/11/15 04:27:57;;;;;;;606.43;565.23;;;6.40;29.20;;;;;;5071595;28;20452;-69
2022/11/15 04:30:23;;;;;;;913.00;844.90;;;6.30;29.50;;;;;;5071828;28;20645;-69
2022/11/15 04:32:48;;;;;;;626.50;582.70;;;6.20;30.00;;;;;;5071782;28;20588;-69
2022/11/15 04:35:14;;;;;;;647.43;602.50;;;6.20;30.50;;;;;;5071919;28;20554;-70
2022/11/15 04:37:40;;;;;;;529.43;493.33;;;6.10;31.20;;;;;;5071871;28;20680;-70
2022/11/15 04:40:06;;;;;;;775.43;719.97;;;6.00;31.90;;;;;;5070475;28;20242;-70
2022/11/15 04:42:31;;;;;;;509.57;473.80;;;6.10;31.80;;;;;;5071548;28;20176;-70
2022/11/15 04:44:57;;;;;;;504.63;471.73;;;6.00;32.90;;;;;;5071764;28;20417;-70
2022/11/15 04:47:22;;;;;;;623.13;579.87;;;6.00;32.90;;;;;;5070183;28;20194;-70
2022/11/15 04:49:48;;;;;;;610.20;563.70;;;6.00;32.80;;;;;;5051791;28;20175;-70
2022/11/15 04:52:13;;;;;;;662.67;616.47;;;6.00;33.70;;;;;;5062761;28;20231;-70
2022/11/15 04:54:39;;;;;;;333.43;311.10;;;5.90;33.70;;;;;;5075947;28;20186;-70
2022/11/15 04:57:04;;;;;;;551.20;513.83;;;5.90;33.70;;;;;;5075774;28;20657;-70
2022/11/15 04:59:30;;;;;;;600.40;559.17;;;5.90;34.60;;;;;;5072011;28;20200;-70
2022/11/15 05:01:55;;;;;;;468.87;435.87;;;5.80;34.60;;;;;;5066236;28;20210;-70
2022/11/15 05:04:21;;;;;;;527.93;492.43;;;5.80;35.30;;;;;;5055575;28;20171;-70
2022/11/15 05:06:49;;;;;;;354.13;328.90;;;5.90;35.30;;;;;;5055679;28;20668;-70
2022/11/15 05:09:15;;;;;;;419.47;390.80;;;5.90;35.80;;;;;;5054250;28;20186;-70
2022/11/15 05:11:41;;;;;;;687.47;636.93;;;5.90;35.50;;;;;;5074508;28;20795;-70
2022/11/15 05:14:07;;;;;;;591.73;551.60;;;6.00;35.40;;;;;;5073978;28;20412;-70
2022/11/15 05:16:32;;;;;;;590.57;544.80;;;6.00;36.00;;;;;;5075318;28;20175;-70
2022/11/15 05:18:58;;;;;;;481.63;450.27;;;6.10;36.00;;;;;;5075207;28;20202;-70
2022/11/15 05:21:24;;;;;;;525.80;489.93;;;6.20;36.20;;;;;;5075220;28;20170;-71
2022/11/15 05:23:49;;;;;;;256.00;235.03;;;6.30;35.40;;;;;;5074910;28;20178;-70
2022/11/15 05:26:17;;;;;;;744.17;688.57;;;6.40;35.90;;;;;;5075239;28;20172;-71
2022/11/15 05:28:43;;;;;;;553.47;514.73;;;6.40;35.50;;;;;;5081173;23;20239;-70
2022/11/15 05:31:11;;;;;;;348.20;320.17;;;6.40;35.70;;;;;;5053833;28;20439;-70
2022/11/15 05:33:39;;;;;;;435.30;403.97;;;6.50;35.20;;;;;;5054762;28;20638;-70
2022/11/15 05:36:27;;;;;;;358.07;329.40;;;6.60;34.30;;;;;;5087369;28;20488;-70
2022/11/15 05:38:53;;;;;;;556.37;513.10;;;6.60;34.30;;;;;;5054692;28;20413;-70
2022/11/15 05:41:29;;;;;;;379.70;356.50;;;6.70;35.10;;;;;;5054948;28;20437;-69
2022/11/15 05:43:54;;;;;;;499.27;467.33;;;6.80;34.50;;;;;;5054585;28;20530;-71
2022/11/15 05:46:20;;;;;;;507.70;471.93;;;6.90;33.20;;;;;;5054558;28;20425;-71
2022/11/15 05:48:50;;;;;;;751.50;694.90;;;7.00;32.70;;;;;;5054544;28;20283;-70
2022/11/15 05:51:18;;;;;;;253.17;233.07;;;7.00;32.10;;;;;;5052877;28;20280;-70
2022/11/15 05:53:45;;;;;;;419.27;388.77;;;7.10;31.60;;;;;;5054334;28;20410;-70
2022/11/15 05:56:11;;;;;;;526.17;486.27;;;7.10;31.20;;;;;;5053437;28;20507;-73
2022/11/15 05:58:37;;;;;;;554.60;517.43;;;7.00;31.60;;;;;;5054493;28;20480;-74
2022/11/15 06:01:04;;;;;;;793.83;735.23;;;7.00;31.70;;;;;;5053118;28;20467;-73
2022/11/15 06:03:29;;;;;;;860.83;795.73;;;6.90;32.00;;;;;;5052703;28;20424;-72
2022/11/15 06:05:56;;;;;;;400.87;370.83;;;6.80;31.90;;;;;;5053163;28;20784;-71
2022/11/15 06:08:21;;;;;;;159.93;146.73;;;6.80;32.20;;;;;;5054160;28;20583;-72
2022/11/15 06:10:47;;;;;;;342.60;315.33;;;6.90;32.30;;;;;;5054394;28;20425;-73
2022/11/15 06:13:12;;;;;;;750.80;696.73;;;6.90;32.70;;;;;;5054319;28;20272;-72
2022/11/15 06:15:38;;;;;;;416.53;387.50;;;6.90;32.20;;;;;;5054129;28;20174;-73
2022/11/15 06:18:03;;;;;;;439.67;405.77;;;7.00;32.50;;;;;;5053617;28;20206;-72
2022/11/15 06:20:29;;;;;;;486.90;448.70;;;7.00;32.10;;;;;;5053814;28;20207;-73
2022/11/15 06:22:59;;;;;;;287.30;266.40;;;7.00;31.70;;;;;;5052449;28;20652;-72
2022/11/15 06:25:26;;;;;;;686.27;636.30;;;7.10;31.20;;;;;;5052641;28;20422;-71
2022/11/15 06:27:52;;;;;;;443.87;409.80;;;7.10;30.40;;;;;;5052144;28;20949;-71
2022/11/15 06:30:18;;;;;;;310.93;288.07;;;7.20;29.70;;;;;;5054252;28;20416;-69
2022/11/15 06:32:44;;;;;;;388.03;361.93;;;7.30;29.80;;;;;;5053736;28;20458;-69
2022/11/15 06:35:09;;;;;;;218.00;200.40;;;7.40;29.10;;;;;;5053795;28;20415;-70
2022/11/15 06:37:35;;;;;;;323.37;298.73;;;7.60;28.80;;;;;;5053742;28;20296;-70
2022/11/15 06:40:00;;;;;;;552.70;512.43;;;7.70;27.80;;;;;;5053680;28;20200;-70
2022/11/15 06:42:26;;;;;;;471.67;435.33;;;7.80;27.20;;;;;;5039139;28;20189;-70
2022/11/15 06:44:51;;;;;;;686.60;637.47;;;7.90;26.50;;;;;;5033777;28;20192;-70
2022/11/15 06:47:17;;;;;;;271.10;250.17;;;8.00;26.20;;;;;;5033411;28;20206;-70
2022/11/15 06:49:42;;;;;;;146.83;133.83;;;8.20;25.70;;;;;;5044445;28;20204;-70
2022/11/15 06:52:08;;;;;;;527.90;490.60;;;8.30;25.10;;;;;;5053168;28;20538;-70
2022/11/15 06:54:33;;;;;;;466.07;432.97;;;8.50;24.10;;;;;;5053250;28;20252;-69
2022/11/15 06:56:59;;;;;;;404.77;376.67;;;8.70;24.00;;;;;;5053166;28;20174;-69
2022/11/15 06:59:24;;;;;;;302.03;279.53;;;8.80;23.10;;;;;;5045256;28;20209;-70
2022/11/15 07:01:50;;;;;;;367.93;342.90;;;9.00;22.70;;;;;;5033198;28;20229;-70
2022/11/15 07:04:15;;;;;;;208.90;191.63;;;9.10;22.70;;;;;;5042509;28;20186;-70
2022/11/15 07:06:41;;;;;;;147.13;133.77;;;9.10;21.90;;;;;;5053346;28;20533;-70
2022/11/15 07:09:06;;;;;;;406.83;379.03;;;9.20;22.00;;;;;;5052818;28;20206;-69
2022/11/15 07:11:33;;;;;;;369.67;345.63;;;9.30;21.60;;;;;;5053105;28;20206;-71
2022/11/15 07:13:59;;;;;;;359.60;333.57;;;9.40;21.00;;;;;;5051135;28;20181;-69
2022/11/15 07:16:25;;;;;;;329.40;304.97;;;9.50;22.90;;;;;;5053104;28;20413;-69
2022/11/15 07:18:51;;;;;;;156.73;142.30;;;9.70;21.80;;;;;;5051188;28;20452;-70
2022/11/15 07:21:16;;;;;;;626.77;588.30;;;10.00;20.70;;;;;;5052942;28;20253;-70
2022/11/15 07:23:42;;;;;;;628.57;589.47;;;10.20;18.80;;;;;;5051395;28;20187;-69
2022/11/15 07:26:08;;;;;;;626.00;586.67;;;10.30;18.60;;;;;;5052901;28;20166;-70
2022/11/15 07:28:34;;;;;;;640.27;598.03;;;10.30;18.50;;;;;;5052721;28;20206;-71
2022/11/15 07:31:08;;;;;;;349.33;324.73;;;10.30;18.50;;;;;;5051312;28;20524;-72
2022/11/15 07:33:34;;;;;;;551.30;515.53;;;10.40;18.50;;;;;;5051150;28;20425;-71
2022/11/15 07:36:04;;;;;;;150.23;137.50;;;10.40;18.10;;;;;;5044501;28;20833;-69
2022/11/15 07:38:30;;;;;;;275.57;256.47;;;10.40;18.00;;;;;;5037239;28;20463;-72
2022/11/15 07:41:01;;;;;;;660.27;616.67;;;10.50;17.90;;;;;;5052283;28;20461;-73
2022/11/15 07:43:32;;;;;;;628.23;586.57;;;10.60;17.90;;;;;;5051676;28;20901;-73
2022/11/15 07:45:58;;;;;;;466.77;435.13;;;10.70;17.70;;;;;;5049151;28;20920;-69
2022/11/15 07:48:24;;;;;;;690.67;644.47;;;10.80;18.20;;;;;;5052250;28;20429;-70
2022/11/15 07:50:49;;;;;;;336.73;312.13;;;11.00;16.80;;;;;;5052286;28;20417;-72
2022/11/15 07:53:15;;;;;;;464.57;431.47;;;11.20;16.80;;;;;;5051106;28;20240;-72
2022/11/15 07:55:41;;;;;;;662.20;617.97;;;11.50;16.40;;;;;;5052116;28;20638;-73
2022/11/15 07:58:10;;;;;;;520.63;487.17;;;11.80;15.50;;;;;;5051038;28;20199;-71
2022/11/15 08:00:36;;;;;;;694.93;648.07;;;11.90;15.40;;;;;;5052280;28;20528;-72
2022/11/15 08:03:10;;;;;;;232.73;215.93;;;12.10;14.90;;;;;;5050676;28;20417;-72
2022/11/15 08:05:37;;;;;;;660.23;615.13;;;12.30;14.50;;;;;;5050640;28;20425;-72
2022/11/15 08:08:03;;;;;;;226.03;209.13;;;12.40;13.70;;;;;;5051719;28;20437;-71
2022/11/15 08:10:29;;;;;;;298.37;276.00;;;12.50;13.60;;;;;;5051451;28;20413;-71
2022/11/15 08:13:11;;;;;;;717.73;669.50;;;12.50;13.50;;;;;;5050477;28;20425;-72
2022/11/15 08:15:38;;;;;;;447.20;417.70;;;12.60;13.50;;;;;;5051553;28;20415;-72
2022/11/15 08:18:14;;;;;;;277.10;258.73;;;12.60;13.00;;;;;;5050460;28;20464;-72
2022/11/15 08:20:41;;;;;;;383.97;359.40;;;12.60;13.20;;;;;;5052482;28;20460;-72
2022/11/15 08:23:08;;;;;;;617.70;578.07;;;12.60;12.80;;;;;;5051486;28;20418;-69
2022/11/15 08:25:34;;;;;;;204.47;189.10;;;12.50;13.10;;;;;;5051703;28;20405;-72
2022/11/15 08:28:02;;;;;;;628.80;588.20;;;12.30;13.00;;;;;;5051415;28;20455;-72
2022/11/15 08:30:28;;;;;;;626.83;584.80;;;12.30;13.20;;;;;;5048553;28;20425;-72
2022/11/15 08:32:57;;;;;;;301.03;279.83;;;12.30;13.30;;;;;;5046256;28;20425;-72
2022/11/15 08:35:23;;;;;;;346.70;322.07;;;12.20;13.50;;;;;;5047870;28;20437;-72
2022/11/15 08:37:49;;;;;;;655.93;612.07;;;12.10;13.60;;;;;;5047800;28;21072;-73
2022/11/15 08:40:15;;;;;;;387.47;360.40;;;12.00;13.50;;;;;;5045897;28;20503;-71
2022/11/15 08:42:41;;;;;;;565.10;529.50;;;11.90;13.80;;;;;;5045628;28;20468;-71
2022/11/15 08:45:08;;;;;;;379.13;355.10;;;11.90;14.10;;;;;;5049931;28;20460;-70
2022/11/15 08:47:33;;;;;;;571.27;532.93;;;11.80;14.20;;;;;;5051090;28;20196;-71
2022/11/15 08:49:59;;;;;;;590.77;551.90;;;11.80;14.40;;;;;;5051715;28;20501;-71
2022/11/15 08:52:25;;;;;;;473.03;441.87;;;11.80;14.40;;;;;;5049822;28;20431;-70
2022/11/15 08:54:50;;;;;;;622.60;582.43;;;11.90;14.40;;;;;;5051459;28;20183;-71
2022/11/15 08:57:16;;;;;;;539.70;504.30;;;12.00;14.50;;;;;;5051611;28;20205;-71
2022/11/15 08:59:42;;;;;;;598.07;559.07;;;12.20;14.40;;;;;;5051306;28;20302;-73
2022/11/15 09:02:12;;;;;;;488.40;455.13;;;12.40;13.90;;;;;;5051351;28;20984;-71
2022/11/15 09:04:43;;;;;;;381.70;354.87;;;12.60;13.60;;;;;;5050091;28;20591;-71
2022/11/15 09:07:13;;;;;;;572.83;537.47;;;12.70;13.00;;;;;;5051118;28;20439;-71
2022/11/15 09:09:38;;;;;;;488.57;457.37;;;12.80;12.50;;;;;;5051461;28;20474;-71
2022/11/15 09:12:06;;;;;;;592.23;554.37;;;12.90;12.50;;;;;;5051106;28;20995;-71
2022/11/15 09:14:32;;;;;;;507.00;476.77;;;13.00;12.60;;;;;;5049823;28;20186;-72
2022/11/15 09:16:58;;;;;;;392.33;365.63;;;13.10;11.80;;;;;;5035255;28;20537;-72
2022/11/15 09:19:23;;;;;;;671.40;622.97;;;13.10;11.80;;;;;;5047487;28;20675;-69
2022/11/15 09:21:49;;;;;;;299.03;276.13;;;13.10;12.30;;;;;;5045790;28;20507;-72
2022/11/15 09:24:15;;;;;;;661.13;617.40;;;12.90;12.50;;;;;;5031380;28;20179;-71
2022/11/15 09:26:41;;;;;;;629.83;587.80;;;12.90;12.90;;;;;;5049325;28;20229;-72
2022/11/15 09:29:06;;;;;;;464.77;435.23;;;13.00;13.20;;;;;;5051159;28;20333;-72
2022/11/15 09:31:32;;;;;;;532.93;496.50;;;12.90;13.20;;;;;;5051223;28;20427;-71
2022/11/15 09:33:57;;;;;;;456.07;423.47;;;12.70;13.30;;;;;;5046388;28;20705;-71
2022/11/15 09:36:23;;;;;;;397.63;368.03;;;12.20;14.10;;;;;;5029793;28;20193;-71
2022/11/15 09:38:49;;;;;;;627.10;580.83;;;12.00;15.30;;;;;;5037855;28;20621;-70
2022/11/15 09:41:14;;;;;;;666.63;619.43;;;11.90;15.00;;;;;;5043042;28;20234;-71
2022/11/15 09:44:04;;;;;;;637.40;589.93;;;11.70;15.20;;;;;;5049821;28;20545;-71
2022/11/15 09:46:44;;;;;;;275.00;255.83;;;11.50;15.40;;;;;;5034290;28;20554;-71
2022/11/15 09:49:14;;;;;;;389.30;365.23;;;11.50;15.90;;;;;;5053363;28;20421;-71
2022/11/15 09:51:49;;;;;;;360.50;331.77;;;11.60;15.90;;;;;;5054564;28;20425;-70
2022/11/15 09:54:36;;;;;;;395.77;369.37;;;11.70;16.00;;;;;;5053297;28;20519;-71
2022/11/15 09:57:32;;;;;;;522.73;485.47;;;11.70;15.90;;;;;;5054515;28;20429;-71
2022/11/15 10:00:02;;;;;;;372.13;344.67;;;11.60;16.50;;;;;;5054350;28;20480;-70
2022/11/15 10:02:52;;;;;;;317.37;294.40;;;11.70;16.20;;;;;;5048608;28;20824;-68
2022/11/15 10:05:20;;;;;;;516.00;482.87;;;11.90;16.60;;;;;;5039953;28;20449;-70
2022/11/15 10:08:30;;;;;;;547.47;511.73;;;11.70;17.20;;;;;;5043266;28;20440;-68
2022/11/15 10:10:59;;;;;;;200.43;184.70;;;11.80;17.70;;;;;;5010692;28;20439;-70
2022/11/15 10:13:30;;;;;;;326.90;303.57;;;11.90;17.40;;;;;;5048837;28;20421;-70
2022/11/15 10:16:09;;;;;;;387.30;360.23;;;12.10;16.90;;;;;;5046610;28;20855;-71
2022/11/15 10:18:44;;;;;;;592.30;553.47;;;12.30;16.20;;;;;;5039156;28;20632;-70
2022/11/15 10:21:39;;;;;;;388.90;362.43;;;12.50;15.80;;;;;;5039110;28;20469;-72
2022/11/15 10:24:12;;;;;;;229.53;212.07;;;12.80;15.90;;;;;;5049146;28;20579;-71
2022/11/15 10:26:45;;;;;;;516.23;480.23;;;13.10;14.90;;;;;;5051946;28;20437;-71
2022/11/15 10:29:11;;;;;;;521.70;484.27;;;13.30;14.30;;;;;;5053362;28;20921;-71
2022/11/15 10:31:40;;;;;;;424.83;396.67;;;13.40;14.40;;;;;;5053636;28;20529;-71
2022/11/15 10:34:20;;;;;;;292.63;270.83;;;13.60;14.50;;;;;;5052556;28;20186;-71
2022/11/15 10:37:01;;;;;;;204.07;189.57;;;13.70;13.20;;;;;;5052431;28;20420;-71
2022/11/15 10:39:27;;;;;;;548.43;510.63;;;13.90;13.50;;;;;;5033806;28;20526;-72
2022/11/15 10:41:53;;;;;;;250.77;231.67;;;13.80;12.90;;;;;;5033406;28;20900;-72
2022/11/15 10:44:29;;;;;;;520.50;486.83;;;13.80;13.00;;;;;;5049730;28;20190;-72
2022/11/15 10:46:54;;;;;;;489.63;455.47;;;13.90;13.00;;;;;;5052007;28;20439;-72
2022/11/15 10:49:31;;;;;;;444.20;411.93;;;13.80;13.10;;;;;;5052473;28;20424;-71
2022/11/15 10:52:01;;;;;;;383.20;354.57;;;13.70;12.90;;;;;;5053239;28;20649;-72
2022/11/15 10:54:41;;;;;;;154.90;142.33;;;13.70;12.40;;;;;;5053557;28;20416;-71
2022/11/15 10:57:28;;;;;;;152.07;139.83;;;13.90;13.10;;;;;;5053275;28;20441;-72
2022/11/15 11:00:00;;;;;;;481.70;447.77;;;14.30;12.60;;;;;;5053342;28;20800;-72
2022/11/15 11:02:38;;;;;;;717.70;668.67;;;14.50;12.00;;;;;;5052320;28;20422;-71
2022/11/15 11:05:24;;;;;;;547.87;511.07;;;14.60;12.00;;;;;;5052184;28;20462;-73
2022/11/15 11:08:03;;;;;;;335.10;312.83;;;14.60;12.00;;;;;;5053069;28;20451;-68
2022/11/15 11:10:29;;;;;;;411.43;383.43;;;14.60;11.50;;;;;;5042781;28;20495;-69
2022/11/15 11:12:55;;;;;;;551.60;514.27;;;14.60;11.30;;;;;;5032929;28;20475;-70
2022/11/15 11:15:24;;;;;;;578.63;539.10;;;14.40;11.70;;;;;;5032466;28;20917;-70
2022/11/15 11:18:10;;;;;;;519.97;484.80;;;14.40;11.90;;;;;;5033175;28;20192;-69
2022/11/15 11:20:45;;;;;;;395.87;369.23;;;14.30;12.20;;;;;;5050889;28;21060;-69
2022/11/15 11:23:30;;;;;;;572.30;534.77;;;14.30;11.80;;;;;;5052522;28;20412;-69
2022/11/15 11:26:34;;;;;;;397.73;369.17;;;14.40;12.00;;;;;;5052948;28;20421;-69
2022/11/15 11:29:18;;;;;;;314.33;292.07;;;14.50;11.70;;;;;;5052877;28;20565;-70
2022/11/15 11:32:05;;;;;;;163.27;148.83;;;14.50;11.90;;;;;;5052557;28;20886;-69
2022/11/15 11:34:46;;;;;;;445.27;415.00;;;14.60;11.60;;;;;;5052800;28;20405;-70
2022/11/15 11:37:23;;;;;;;671.17;623.97;;;14.70;12.10;;;;;;5052624;28;20425;-70
2022/11/15 11:39:58;;;;;;;408.03;379.03;;;14.80;11.80;;;;;;5052643;28;20967;-70
2022/11/15 11:42:29;;;;;;;585.33;546.90;;;14.90;11.90;;;;;;5052297;28;20428;-70
2022/11/15 11:45:09;;;;;;;227.33;208.87;;;15.10;11.50;;;;;;5052574;28;20496;-70
2022/11/15 11:47:46;;;;;;;584.57;544.67;;;15.20;11.60;;;;;;5053077;28;20935;-70
2022/11/15 11:50:21;;;;;;;434.13;402.00;;;15.30;11.30;;;;;;5052400;28;20412;-70
2022/11/15 11:53:05;;;;;;;503.70;470.10;;;15.40;10.80;;;;;;5052119;28;20772;-70
2022/11/15 11:55:40;;;;;;;649.87;606.27;;;15.50;10.90;;;;;;5052472;28;20420;-70
2022/11/15 11:58:14;;;;;;;314.53;291.53;;;15.60;10.70;;;;;;5052374;28;20424;-71
2022/11/15 12:00:46;;;;;;;389.93;362.50;;;15.60;10.70;;;;;;5052317;28;20459;-70
2022/11/15 12:03:17;;;;;;;446.40;415.17;;;15.60;10.80;;;;;;5052058;28;20405;-73
2022/11/15 12:05:48;;;;;;;226.73;209.80;;;15.60;9.60;;;;;;5051698;28;20427;-73
2022/11/15 12:08:27;;;;;;;661.93;614.47;;;15.50;10.40;;;;;;5052039;28;20455;-70
2022/11/15 12:11:12;;;;;;;556.73;519.87;;;15.50;10.50;;;;;;5051607;28;20487;-70
2022/11/15 12:13:38;;;;;;;651.63;606.07;;;15.40;10.00;;;;;;5051750;28;20416;-73
2022/11/15 12:16:17;;;;;;;563.60;524.50;;;15.40;10.60;;;;;;5050698;28;20955;-73
2022/11/15 12:18:52;;;;;;;315.23;291.67;;;15.40;10.60;;;;;;5051950;28;20493;-74
2022/11/15 12:21:39;;;;;;;550.33;511.03;;;15.30;10.70;;;;;;5051715;28;20464;-74
2022/11/15 12:24:12;;;;;;;556.13;517.17;;;15.20;10.60;;;;;;5051631;28;20414;-74
2022/11/15 12:26:50;;;;;;;439.90;410.50;;;15.20;10.30;;;;;;5051856;28;20935;-74
2022/11/15 12:29:23;;;;;;;612.13;568.70;;;15.20;10.60;;;;;;5051771;28;20419;-74
2022/11/15 12:31:52;;;;;;;578.60;539.37;;;15.10;10.70;;;;;;5051676;28;20912;-73
2022/11/15 12:34:20;;;;;;;560.00;521.23;;;15.00;10.60;;;;;;5049425;28;20422;-74
2022/11/15 12:36:48;;;;;;;413.97;385.17;;;15.00;11.00;;;;;;5048723;28;20433;-73